createdAt,value
2023-04-04T00:00:34.542Z,2.60
2023-04-04T00:03:01.187Z,2.70
2023-04-04T00:05:27.839Z,2.70
2023-04-04T00:07:54.349Z,2.60
2023-04-04T00:10:20.855Z,2.50
2023-04-04T00:12:47.376Z,2.40
2023-04-04T00:15:13.897Z,2.40
2023-04-04T00:17:40.504Z,2.20
2023-04-04T00:20:07.733Z,2.00
2023-04-04T00:22:35.015Z,1.90
2023-04-04T00:25:01.560Z,1.70
2023-04-04T00:27:28.079Z,1.60
2023-04-04T00:29:55.106Z,1.50
2023-04-04T00:32:21.768Z,1.30
2023-04-04T00:34:55.521Z,1.20
2023-04-04T00:37:22.552Z,1.00
2023-04-04T00:39:49.201Z,0.90
2023-04-04T00:42:15.735Z,0.80
2023-04-04T00:44:42.234Z,0.90
2023-04-04T00:47:08.780Z,0.80
2023-04-04T00:49:36.938Z,0.70
2023-04-04T00:52:06.355Z,0.50
2023-04-04T00:54:33.790Z,0.30
2023-04-04T00:57:03.684Z,0.30
2023-04-04T00:59:32.172Z,0.10
2023-04-04T01:02:00.157Z,0.00
2023-04-04T01:04:30.710Z,-0.10
2023-04-04T01:06:57.340Z,-0.20
2023-04-04T01:09:25.336Z,-0.30
2023-04-04T01:11:52.888Z,-0.30
2023-04-04T01:14:19.641Z,-0.60
2023-04-04T01:16:48.954Z,-0.50
2023-04-04T01:19:37.650Z,-0.60
2023-04-04T01:22:06.013Z,-0.50
2023-04-04T01:24:35.406Z,-0.50
2023-04-04T01:27:01.947Z,-0.40
2023-04-04T01:29:28.476Z,-0.40
2023-04-04T01:32:12.800Z,-0.50
2023-04-04T01:36:56.557Z,-0.70
2023-04-04T01:39:32.130Z,-0.70
2023-04-04T01:42:02.562Z,-0.70
2023-04-04T01:44:29.482Z,-0.70
2023-04-04T01:46:56.184Z,-0.70
2023-04-04T01:49:23.190Z,-0.60
2023-04-04T01:51:52.164Z,-0.70
2023-04-04T01:54:18.636Z,-0.70
2023-04-04T01:56:48.221Z,-0.60
2023-04-04T01:59:14.955Z,-0.60
2023-04-04T02:01:42.846Z,-0.70
2023-04-04T02:04:11.705Z,-0.80
2023-04-04T02:06:39.670Z,-0.70
2023-04-04T02:09:06.135Z,-0.90
2023-04-04T02:11:32.937Z,-0.90
2023-04-04T02:13:59.549Z,-0.90
2023-04-04T02:16:26.120Z,-1.10
2023-04-04T02:18:52.602Z,-1.20
2023-04-04T02:21:19.102Z,-1.40
2023-04-04T02:23:45.573Z,-1.50
2023-04-04T02:26:12.109Z,-1.60
2023-04-04T02:28:38.634Z,-1.50
2023-04-04T02:31:05.339Z,-1.40
2023-04-04T02:33:31.809Z,-1.40
2023-04-04T02:35:59.545Z,-1.50
2023-04-04T02:38:26.720Z,-1.50
2023-04-04T02:40:53.194Z,-1.50
2023-04-04T02:43:19.715Z,-1.40
2023-04-04T02:45:48.500Z,-1.50
2023-04-04T02:48:15.112Z,-1.50
2023-04-04T02:50:41.763Z,-1.60
2023-04-04T02:53:08.440Z,-1.50
2023-04-04T02:55:34.905Z,-1.50
2023-04-04T02:58:01.361Z,-1.30
2023-04-04T03:00:27.858Z,-1.50
2023-04-04T03:02:56.031Z,-1.40
2023-04-04T03:05:26.936Z,-1.50
2023-04-04T03:07:57.957Z,-1.50
2023-04-04T03:10:26.346Z,-1.60
2023-04-04T03:12:52.936Z,-1.60
2023-04-04T03:15:19.419Z,-1.70
2023-04-04T03:17:46.074Z,-1.70
2023-04-04T03:20:14.282Z,-1.70
2023-04-04T03:22:41.762Z,-1.60
2023-04-04T03:25:09.228Z,-1.60
2023-04-04T03:27:35.736Z,-1.70
2023-04-04T03:30:02.267Z,-1.60
2023-04-04T03:32:28.860Z,-1.40
2023-04-04T03:34:55.481Z,-1.30
2023-04-04T03:37:22.234Z,-1.60
2023-04-04T03:39:49.407Z,-1.90
2023-04-04T03:42:16.470Z,-2.00
2023-04-04T03:44:43.082Z,-2.10
2023-04-04T03:47:09.586Z,-2.10
2023-04-04T03:49:36.048Z,-2.10
2023-04-04T03:52:02.577Z,-2.00
2023-04-04T03:54:29.177Z,-1.90
2023-04-04T03:56:57.063Z,-2.00
2023-04-04T03:59:24.062Z,-1.90
2023-04-04T04:01:51.545Z,-2.00
2023-04-04T04:04:18.086Z,-2.40
2023-04-04T04:06:44.591Z,-2.40
2023-04-04T04:09:11.618Z,-2.60
2023-04-04T04:11:38.117Z,-2.50
2023-04-04T04:14:04.642Z,-2.40
2023-04-04T04:16:32.208Z,-2.30
2023-04-04T04:18:58.918Z,-2.20
2023-04-04T04:21:25.478Z,-2.20
2023-04-04T04:23:52.003Z,-2.30
2023-04-04T04:26:18.485Z,-2.50
2023-04-04T04:28:47.657Z,-2.50
2023-04-04T04:31:14.213Z,-2.40
2023-04-04T04:33:40.794Z,-2.30
2023-04-04T04:36:07.693Z,-2.30
2023-04-04T04:38:34.240Z,-2.30
2023-04-04T04:41:01.297Z,-2.40
2023-04-04T04:43:27.782Z,-2.40
2023-04-04T04:45:54.366Z,-2.20
2023-04-04T04:48:20.869Z,-2.10
2023-04-04T04:50:47.945Z,-2.10
2023-04-04T04:53:14.818Z,-2.00
2023-04-04T04:55:45.749Z,-2.10
2023-04-04T04:58:12.600Z,-2.20
2023-04-04T05:00:39.673Z,-2.20
2023-04-04T05:03:06.487Z,-2.30
2023-04-04T05:05:34.237Z,-2.40
2023-04-04T05:08:04.546Z,-2.40
2023-04-04T05:10:31.535Z,-2.40
2023-04-04T05:12:58.064Z,-2.30
2023-04-04T05:15:31.552Z,-2.20
2023-04-04T05:17:58.496Z,-2.10
2023-04-04T05:20:25.016Z,-2.00
2023-04-04T05:22:51.701Z,-2.00
2023-04-04T05:25:18.374Z,-2.10
2023-04-04T05:27:49.060Z,-2.00
2023-04-04T05:30:16.269Z,-2.10
2023-04-04T05:32:45.656Z,-2.00
2023-04-04T05:35:12.826Z,-1.80
2023-04-04T05:37:40.206Z,-1.70
2023-04-04T05:40:08.072Z,-1.60
2023-04-04T05:42:34.582Z,-1.50
2023-04-04T05:45:01.149Z,-1.30
2023-04-04T05:47:27.645Z,-1.10
2023-04-04T05:49:54.197Z,-1.10
2023-04-04T05:52:21.033Z,-0.90
2023-04-04T05:54:47.528Z,-0.70
2023-04-04T05:57:13.983Z,-0.40
2023-04-04T05:59:40.478Z,-0.30
2023-04-04T06:02:07.517Z,-0.10
2023-04-04T06:04:36.172Z,0.30
2023-04-04T06:07:02.809Z,0.70
2023-04-04T06:09:29.344Z,1.10
2023-04-04T06:11:55.819Z,1.40
2023-04-04T06:14:22.330Z,1.70
2023-04-04T06:16:48.849Z,1.90
2023-04-04T06:19:15.899Z,2.10
2023-04-04T06:21:42.451Z,2.20
2023-04-04T06:24:08.976Z,2.20
2023-04-04T06:26:35.471Z,2.20
2023-04-04T06:29:01.972Z,2.20
2023-04-04T06:31:28.545Z,2.30
2023-04-04T06:33:55.342Z,2.40
2023-04-04T06:36:21.878Z,2.50
2023-04-04T06:38:48.380Z,2.60
2023-04-04T06:41:14.900Z,2.70
2023-04-04T06:43:41.439Z,2.80
2023-04-04T06:46:08.595Z,3.00
2023-04-04T06:48:35.070Z,3.40
2023-04-04T06:51:06.211Z,3.30
2023-04-04T06:53:33.633Z,3.50
2023-04-04T06:56:00.836Z,3.60
2023-04-04T06:58:27.322Z,3.80
2023-04-04T07:00:53.823Z,4.20
2023-04-04T07:03:22.800Z,4.60
2023-04-04T07:05:49.431Z,4.80
2023-04-04T07:08:15.973Z,5.10
2023-04-04T07:10:42.721Z,5.30
2023-04-04T07:13:10.360Z,5.20
2023-04-04T07:15:36.828Z,5.40
2023-04-04T07:18:03.448Z,5.60
2023-04-04T07:20:30.184Z,5.70
2023-04-04T07:22:56.669Z,5.80
2023-04-04T07:25:23.210Z,6.00
2023-04-04T07:27:57.146Z,6.10
2023-04-04T07:30:32.054Z,6.10
2023-04-04T07:32:59.821Z,6.20
2023-04-04T07:35:26.837Z,6.30
2023-04-04T07:37:54.114Z,6.50
2023-04-04T07:40:21.330Z,6.40
2023-04-04T07:42:53.740Z,6.50
2023-04-04T07:45:21.420Z,6.70
2023-04-04T07:47:48.146Z,6.80
2023-04-04T07:50:15.493Z,6.90
2023-04-04T07:52:42.088Z,7.00
2023-04-04T07:55:09.026Z,7.00
2023-04-04T07:57:39.207Z,7.10
2023-04-04T08:00:10.995Z,7.20
2023-04-04T08:02:38.148Z,7.10
2023-04-04T08:05:06.172Z,7.10
2023-04-04T08:07:32.906Z,7.30
2023-04-04T08:09:59.445Z,7.60
2023-04-04T08:12:25.932Z,7.70
2023-04-04T08:14:52.557Z,7.80
2023-04-04T08:17:19.716Z,7.90
2023-04-04T08:19:46.176Z,7.70
2023-04-04T08:22:12.921Z,7.40
2023-04-04T08:24:39.430Z,7.40
2023-04-04T08:27:06.166Z,7.30
2023-04-04T08:29:33.574Z,7.10
2023-04-04T08:32:00.407Z,7.10
2023-04-04T08:34:27.759Z,7.00
2023-04-04T08:36:54.337Z,6.70
2023-04-04T08:39:20.858Z,6.70
2023-04-04T08:41:53.128Z,6.60
2023-04-04T08:44:22.164Z,6.60
2023-04-04T08:46:49.966Z,6.80
2023-04-04T08:49:20.482Z,6.90
2023-04-04T08:51:48.953Z,6.90
2023-04-04T08:54:17.800Z,7.10
2023-04-04T08:56:44.321Z,7.10
2023-04-04T08:59:14.697Z,7.20
2023-04-04T09:01:41.589Z,7.20
2023-04-04T09:04:10.180Z,7.40
2023-04-04T09:06:37.579Z,7.60
2023-04-04T09:09:04.365Z,7.60
2023-04-04T09:11:35.699Z,7.60
2023-04-04T09:14:04.014Z,7.80
2023-04-04T09:16:31.378Z,8.00
2023-04-04T09:18:57.921Z,8.00
2023-04-04T09:21:24.399Z,8.00
2023-04-04T09:24:04.131Z,8.00
2023-04-04T09:26:51.622Z,8.10
2023-04-04T09:29:20.657Z,7.80
2023-04-04T09:31:48.916Z,7.80
2023-04-04T09:34:19.443Z,7.70
2023-04-04T09:36:47.008Z,7.90
2023-04-04T09:39:15.878Z,8.30
2023-04-04T09:41:44.807Z,8.40
2023-04-04T09:44:12.381Z,8.30
2023-04-04T09:46:40.020Z,8.10
2023-04-04T09:49:13.102Z,7.80
2023-04-04T09:51:41.461Z,7.80
2023-04-04T09:54:18.650Z,7.70
2023-04-04T09:56:50.884Z,7.80
2023-04-04T09:59:18.017Z,8.00
2023-04-04T10:01:50.589Z,7.90
2023-04-04T10:04:18.521Z,8.00
2023-04-04T10:06:45.675Z,8.10
2023-04-04T10:09:12.744Z,7.80
2023-04-04T10:11:39.547Z,7.70
2023-04-04T10:14:06.047Z,7.70
2023-04-04T10:16:36.333Z,7.70
2023-04-04T10:19:07.034Z,7.40
2023-04-04T10:21:34.576Z,7.50
2023-04-04T10:24:08.233Z,7.60
2023-04-04T10:26:34.788Z,7.70
2023-04-04T10:29:01.484Z,7.90
2023-04-04T10:31:32.806Z,8.00
2023-04-04T10:35:53.482Z,8.10
2023-04-04T10:38:27.585Z,8.50
2023-04-04T10:41:00.004Z,8.30
2023-04-04T10:43:31.817Z,8.30
2023-04-04T10:46:10.593Z,8.20
2023-04-04T10:48:37.490Z,8.20
2023-04-04T10:51:05.747Z,8.40
2023-04-04T10:53:33.817Z,8.50
2023-04-04T10:56:01.456Z,8.40
2023-04-04T10:58:31.111Z,8.60
2023-04-04T11:00:58.867Z,8.50
2023-04-04T11:03:25.434Z,8.60
2023-04-04T11:05:59.523Z,8.80
2023-04-04T11:08:29.683Z,8.90
2023-04-04T11:10:57.036Z,8.60
2023-04-04T11:13:34.945Z,8.50
2023-04-04T11:16:13.182Z,8.70
2023-04-04T11:18:49.239Z,8.80
2023-04-04T11:21:25.779Z,9.00
2023-04-04T11:24:15.042Z,8.90
2023-04-04T11:26:42.619Z,8.60
2023-04-04T11:29:18.964Z,8.30
2023-04-04T11:31:45.871Z,8.20
2023-04-04T11:34:15.296Z,8.20
2023-04-04T11:36:51.935Z,8.50
2023-04-04T11:39:26.368Z,8.70
2023-04-04T11:42:55.354Z,8.70
2023-04-04T11:45:26.394Z,8.80
2023-04-04T11:47:53.721Z,8.70
2023-04-04T11:50:21.078Z,8.80
2023-04-04T11:52:47.566Z,8.90
2023-04-04T11:55:22.066Z,9.00
2023-04-04T11:57:50.642Z,9.10
2023-04-04T12:00:38.575Z,9.20
2023-04-04T12:03:11.781Z,9.30
2023-04-04T12:05:41.442Z,9.30
2023-04-04T12:08:10.661Z,9.30
2023-04-04T12:10:40.627Z,8.90
2023-04-04T12:13:09.108Z,8.80
2023-04-04T12:15:37.252Z,8.70
2023-04-04T12:18:08.293Z,8.60
2023-04-04T12:20:39.337Z,8.80
2023-04-04T12:23:05.830Z,8.80
2023-04-04T12:25:33.425Z,8.70
2023-04-04T12:28:02.874Z,8.70
2023-04-04T12:30:29.635Z,8.40
2023-04-04T12:32:56.669Z,8.40
2023-04-04T12:35:23.256Z,8.50
2023-04-04T12:38:03.879Z,8.40
2023-04-04T12:40:36.622Z,8.40
2023-04-04T12:43:15.477Z,8.40
2023-04-04T12:45:43.946Z,8.50
2023-04-04T12:48:17.237Z,8.70
2023-04-04T12:51:00.118Z,8.90
2023-04-04T13:16:36.240Z,9.20
2023-04-04T13:19:04.024Z,9.00
2023-04-04T13:21:30.905Z,9.20
2023-04-04T13:23:57.751Z,9.40
2023-04-04T13:26:24.253Z,9.30
2023-04-04T13:28:50.715Z,9.30
2023-04-04T13:31:17.270Z,8.90
2023-04-04T13:33:43.735Z,8.80
2023-04-04T13:36:10.385Z,8.90
2023-04-04T13:38:36.901Z,8.90
2023-04-04T13:41:03.366Z,9.00
2023-04-04T13:43:29.987Z,8.90
2023-04-04T13:45:56.547Z,8.90
2023-04-04T13:48:23.100Z,8.70
2023-04-04T13:50:54.277Z,8.90
2023-04-04T13:53:20.804Z,8.80
2023-04-04T13:56:13.173Z,8.40
2023-04-04T13:58:43.912Z,8.20
2023-04-04T14:01:11.047Z,8.30
2023-04-04T14:03:37.698Z,8.40
2023-04-04T14:06:10.515Z,8.40
2023-04-04T14:08:37.980Z,8.50
2023-04-04T14:11:04.540Z,8.50
2023-04-04T14:13:32.137Z,8.60
2023-04-04T14:15:58.707Z,8.40
2023-04-04T14:18:25.228Z,8.40
2023-04-04T14:20:51.708Z,8.40
2023-04-04T14:23:18.194Z,8.30
2023-04-04T14:25:44.688Z,8.20
2023-04-04T14:28:11.282Z,8.30
2023-04-04T14:30:37.788Z,8.30
2023-04-04T14:33:04.306Z,8.40
2023-04-04T14:35:30.819Z,8.30
2023-04-04T14:37:57.299Z,8.30
2023-04-04T14:40:23.855Z,8.30
2023-04-04T14:42:50.621Z,8.20
2023-04-04T14:45:17.440Z,8.10
2023-04-04T14:47:43.979Z,8.20
2023-04-04T14:50:10.649Z,8.30
2023-04-04T14:52:37.168Z,8.50
2023-04-04T14:55:04.699Z,8.40
2023-04-04T14:57:32.197Z,8.50
2023-04-04T15:00:02.162Z,8.30
2023-04-04T15:02:29.083Z,8.10
2023-04-04T15:04:55.557Z,8.10
2023-04-04T15:07:23.494Z,8.20
2023-04-04T15:09:50.113Z,8.30
2023-04-04T15:12:16.605Z,8.20
2023-04-04T15:14:43.066Z,8.20
2023-04-04T15:17:09.612Z,8.10
2023-04-04T15:19:36.323Z,8.00
2023-04-04T15:22:03.850Z,8.00
2023-04-04T15:24:30.341Z,7.80
2023-04-04T15:26:57.775Z,7.70
2023-04-04T15:29:24.386Z,7.60
2023-04-04T15:31:50.924Z,7.50
2023-04-04T15:34:17.430Z,7.60
2023-04-04T15:36:44.070Z,7.60
2023-04-04T15:39:10.612Z,7.70
2023-04-04T15:41:37.519Z,7.70
2023-04-04T15:44:04.920Z,7.60
2023-04-04T15:46:31.501Z,7.60
2023-04-04T15:48:57.978Z,7.60
2023-04-04T15:51:25.082Z,7.60
2023-04-04T15:53:55.336Z,7.60
2023-04-04T15:56:22.085Z,7.60
2023-04-04T15:58:48.638Z,7.50
2023-04-04T16:01:15.191Z,7.50
2023-04-04T16:03:42.711Z,7.60
2023-04-04T16:06:12.198Z,7.60
2023-04-04T16:08:40.497Z,7.30
2023-04-04T16:11:07.083Z,7.30
2023-04-04T16:13:33.626Z,7.30
2023-04-04T16:16:00.207Z,7.30
2023-04-04T16:18:26.736Z,7.30
2023-04-04T16:20:53.220Z,7.30
2023-04-04T16:23:19.925Z,7.30
2023-04-04T16:25:46.435Z,7.10
2023-04-04T16:28:12.953Z,7.10
2023-04-04T16:30:39.644Z,7.10
2023-04-04T16:33:06.345Z,7.10
2023-04-04T16:35:32.866Z,7.10
2023-04-04T16:37:59.343Z,7.10
2023-04-04T16:40:25.836Z,7.10
2023-04-04T16:42:52.330Z,6.90
2023-04-04T16:45:18.862Z,6.90
2023-04-04T16:47:45.353Z,6.80
2023-04-04T16:50:12.037Z,6.70
2023-04-04T16:52:38.505Z,6.70
2023-04-04T16:55:06.747Z,6.60
2023-04-04T16:57:33.196Z,6.60
2023-04-04T16:59:59.718Z,6.60
2023-04-04T17:02:26.289Z,6.50
2023-04-04T17:04:52.997Z,6.50
2023-04-04T17:07:20.402Z,6.40
2023-04-04T17:09:48.667Z,6.30
2023-04-04T17:12:15.589Z,6.20
2023-04-04T17:14:42.925Z,6.10
2023-04-04T17:17:09.623Z,6.20
2023-04-04T17:19:36.461Z,6.10
2023-04-04T17:22:03.220Z,6.00
2023-04-04T17:24:29.846Z,5.90
2023-04-04T17:26:59.777Z,5.90
2023-04-04T17:29:26.234Z,5.90
2023-04-04T17:31:56.835Z,5.90
2023-04-04T17:34:23.968Z,5.80
2023-04-04T17:36:52.251Z,5.70
2023-04-04T17:39:18.975Z,5.70
2023-04-04T17:41:47.101Z,5.70
2023-04-04T17:44:18.410Z,5.60
2023-04-04T17:46:45.538Z,5.50
2023-04-04T17:49:15.170Z,5.50
2023-04-04T17:51:41.683Z,5.40
2023-04-04T17:54:08.310Z,5.40
2023-04-04T17:56:35.018Z,5.40
2023-04-04T17:59:01.632Z,5.20
2023-04-04T18:01:28.573Z,5.10
2023-04-04T18:03:55.068Z,5.10
2023-04-04T18:06:23.101Z,5.00
2023-04-04T18:08:51.008Z,4.80
2023-04-04T18:11:17.535Z,4.70
2023-04-04T18:13:44.277Z,4.70
2023-04-04T18:16:10.783Z,4.70
2023-04-04T18:18:39.550Z,4.70
2023-04-04T18:21:07.600Z,4.50
2023-04-04T18:23:34.141Z,4.50
2023-04-04T18:26:01.184Z,4.40
2023-04-04T18:28:27.657Z,4.20
2023-04-04T18:30:54.395Z,4.00
2023-04-04T18:33:21.673Z,3.80
2023-04-04T18:35:48.276Z,3.60
2023-04-04T18:38:14.788Z,3.50
2023-04-04T18:40:44.386Z,3.40
2023-04-04T18:43:11.480Z,3.30
2023-04-04T18:45:40.671Z,3.10
2023-04-04T18:48:07.676Z,2.90
2023-04-04T18:50:34.667Z,2.90
2023-04-04T18:53:01.146Z,2.90
2023-04-04T18:55:27.642Z,2.80
2023-04-04T18:57:54.141Z,2.80
2023-04-04T19:00:20.615Z,2.60
2023-04-04T19:02:47.174Z,2.60
2023-04-04T19:05:20.065Z,2.50
2023-04-04T19:07:47.981Z,2.50
2023-04-04T19:10:15.824Z,2.60
2023-04-04T19:12:42.482Z,2.50
2023-04-04T19:15:09.688Z,2.40
2023-04-04T19:17:36.241Z,2.30
2023-04-04T19:20:02.828Z,2.10
2023-04-04T19:22:29.300Z,2.00
2023-04-04T19:24:56.096Z,1.90
2023-04-04T19:27:22.609Z,1.90
2023-04-04T19:29:49.115Z,1.80
2023-04-04T19:32:18.779Z,1.80
2023-04-04T19:34:46.761Z,1.80
2023-04-04T19:37:14.513Z,1.70
2023-04-04T19:39:42.912Z,1.60
2023-04-04T19:42:10.495Z,1.60
2023-04-04T19:44:40.162Z,1.50
2023-04-04T19:47:09.928Z,1.50
2023-04-04T19:49:37.410Z,1.40
2023-04-04T19:52:05.443Z,1.30
2023-04-04T19:54:36.727Z,1.30
2023-04-04T19:57:13.434Z,1.20
2023-04-04T19:59:58.435Z,1.10
2023-04-04T20:03:07.183Z,1.00
2023-04-04T20:05:58.499Z,1.00
2023-04-04T20:08:36.734Z,1.00
2023-04-04T20:11:06.091Z,0.80
2023-04-04T20:13:35.400Z,0.60
2023-04-04T20:16:05.260Z,0.60
2023-04-04T20:18:34.232Z,0.70
2023-04-04T20:21:18.999Z,0.70
2023-04-04T20:23:52.702Z,0.60
2023-04-04T20:26:59.022Z,0.60
2023-04-04T20:29:33.979Z,0.80
2023-04-04T20:32:04.438Z,0.80
2023-04-04T20:34:44.564Z,0.70
2023-04-04T20:37:25.400Z,0.80
2023-04-04T20:39:59.964Z,0.70
2023-04-04T20:42:44.555Z,0.50
2023-04-04T20:45:45.835Z,0.50
2023-04-04T20:48:40.154Z,0.50
2023-04-04T20:51:30.682Z,0.40
2023-04-04T20:54:02.663Z,0.40
2023-04-04T20:56:46.027Z,0.40
2023-04-04T20:59:36.751Z,0.30
2023-04-04T21:02:10.358Z,0.30
2023-04-04T21:04:37.503Z,0.30
2023-04-04T21:07:05.424Z,0.30
2023-04-04T21:09:32.106Z,0.20
2023-04-04T21:12:00.985Z,0.20
2023-04-04T21:14:36.685Z,0.10
2023-04-04T21:17:05.939Z,0.10
2023-04-04T21:19:32.493Z,0.10
2023-04-04T21:21:59.104Z,0.00
2023-04-04T21:24:30.672Z,-0.10
2023-04-04T21:26:57.815Z,-0.30
2023-04-04T21:29:25.653Z,-0.50
2023-04-04T21:31:54.781Z,-0.40
2023-04-04T21:34:28.822Z,-0.50
2023-04-04T21:37:00.547Z,-0.50
2023-04-04T21:39:30.280Z,-0.60
2023-04-04T21:42:04.634Z,-0.50
2023-04-04T21:44:32.727Z,-0.60
2023-04-04T21:46:59.190Z,-0.70
2023-04-04T21:49:25.858Z,-0.60
2023-04-04T21:51:52.500Z,-0.60
2023-04-04T21:54:19.373Z,-0.60
2023-04-04T21:56:46.246Z,-0.70
2023-04-04T21:59:12.778Z,-1.00
2023-04-04T22:01:39.826Z,-1.00
2023-04-04T22:04:06.351Z,-0.90
2023-04-04T22:06:32.884Z,-1.00
2023-04-04T22:09:00.885Z,-1.00
2023-04-04T22:11:28.184Z,-0.90
2023-04-04T22:14:06.039Z,-0.80
2023-04-04T22:16:37.938Z,-0.80
2023-04-04T22:19:04.485Z,-0.90
2023-04-04T22:21:35.552Z,-1.00
2023-04-04T22:24:02.213Z,-1.20
2023-04-04T22:26:31.436Z,-1.30
2023-04-04T22:28:59.804Z,-1.30
2023-04-04T22:31:27.819Z,-1.50
2023-04-04T22:33:54.760Z,-1.60
2023-04-04T22:36:23.004Z,-1.70
2023-04-04T22:38:55.586Z,-1.70
2023-04-04T22:41:25.704Z,-1.70
2023-04-04T22:43:52.206Z,-1.80
2023-04-04T22:46:19.122Z,-1.80
2023-04-04T22:48:45.695Z,-1.70
2023-04-04T22:51:14.157Z,-1.70
2023-04-04T22:53:40.793Z,-1.70
2023-04-04T22:56:07.323Z,-1.70
2023-04-04T22:58:33.828Z,-1.70
2023-04-04T23:01:00.421Z,-1.70
2023-04-04T23:03:26.981Z,-1.70
2023-04-04T23:05:53.436Z,-1.60
2023-04-04T23:08:19.920Z,-1.60
2023-04-04T23:10:46.401Z,-1.50
2023-04-04T23:13:12.905Z,-1.60
2023-04-04T23:15:40.658Z,-1.70
2023-04-04T23:18:07.496Z,-1.90
2023-04-04T23:20:34.017Z,-1.90
2023-04-04T23:23:00.649Z,-1.90
2023-04-04T23:25:27.121Z,-1.90
2023-04-04T23:27:53.784Z,-2.00
2023-04-04T23:30:22.352Z,-1.90
2023-04-04T23:32:49.425Z,-1.90
2023-04-04T23:35:16.027Z,-1.80
2023-04-04T23:37:42.480Z,-1.90
2023-04-04T23:40:10.445Z,-2.20
2023-04-04T23:42:37.198Z,-2.20
2023-04-04T23:45:04.333Z,-2.20
2023-04-04T23:47:31.026Z,-2.30
2023-04-04T23:49:57.687Z,-2.20
2023-04-04T23:52:24.261Z,-2.20
2023-04-04T23:54:50.783Z,-2.40
2023-04-04T23:57:17.286Z,-2.50
2023-04-04T23:59:43.751Z,-2.70
